sensor_id;sensor_type;location;lat;lon;timestamp;pressure;altitude;pressure_sealevel;temperature;humidity
32243;BME280;18731;42.830;24.390;2022-11-20T03:01:45;93781.22;;;13.47;78.15
32243;BME280;18731;42.830;24.390;2022-11-20T03:04:10;93773.75;;;13.33;77.97
32243;BME280;18731;42.830;24.390;2022-11-20T03:06:36;93787.25;;;13.40;77.84
32243;BME280;18731;42.830;24.390;2022-11-20T03:09:01;93778.69;;;13.31;77.72
32243;BME280;18731;42.830;24.390;2022-11-20T03:11:28;93784.78;;;13.28;78.51
32243;BME280;18731;42.830;24.390;2022-11-20T03:13:54;93789.28;;;13.21;78.25
32243;BME280;18731;42.830;24.390;2022-11-20T03:16:22;93797.53;;;13.12;78.52
32243;BME280;18731;42.830;24.390;2022-11-20T03:18:49;93810.94;;;13.12;79.63
32243;BME280;18731;42.830;24.390;2022-11-20T03:21:15;93812.47;;;13.13;79.00
32243;BME280;18731;42.830;24.390;2022-11-20T03:23:41;93832.25;;;13.05;80.21
32243;BME280;18731;42.830;24.390;2022-11-20T03:26:16;93815.75;;;13.03;79.33
32243;BME280;18731;42.830;24.390;2022-11-20T03:28:46;93820.09;;;12.88;80.41
32243;BME280;18731;42.830;24.390;2022-11-20T03:31:14;93826.53;;;12.83;81.86
32243;BME280;18731;42.830;24.390;2022-11-20T03:33:42;93834.56;;;13.06;80.55
32243;BME280;18731;42.830;24.390;2022-11-20T03:36:10;93834.78;;;12.98;80.03
32243;BME280;18731;42.830;24.390;2022-11-20T03:38:36;93846.47;;;13.09;80.33
32243;BME280;18731;42.830;24.390;2022-11-20T03:41:10;93847.81;;;12.99;80.91
32243;BME280;18731;42.830;24.390;2022-11-20T03:43:36;93852.41;;;12.99;80.88
32243;BME280;18731;42.830;24.390;2022-11-20T03:46:03;93870.94;;;13.07;80.62
32243;BME280;18731;42.830;24.390;2022-11-20T03:48:29;93861.50;;;12.94;80.70
32243;BME280;18731;42.830;24.390;2022-11-20T03:53:33;93850.59;;;13.03;80.78
32243;BME280;18731;42.830;24.390;2022-11-20T03:55:59;93853.69;;;13.05;80.71
32243;BME280;18731;42.830;24.390;2022-11-20T03:58:24;93862.44;;;13.02;80.69
32243;BME280;18731;42.830;24.390;2022-11-20T04:00:50;93865.22;;;13.09;80.53
32243;BME280;18731;42.830;24.390;2022-11-20T04:03:15;93855.69;;;13.11;80.21
32243;BME280;18731;42.830;24.390;2022-11-20T04:05:41;93865.53;;;13.04;80.66
32243;BME280;18731;42.830;24.390;2022-11-20T04:08:07;93849.88;;;13.06;80.45
32243;BME280;18731;42.830;24.390;2022-11-20T04:10:32;93850.75;;;13.13;80.71
32243;BME280;18731;42.830;24.390;2022-11-20T04:12:58;93855.75;;;13.15;80.88
32243;BME280;18731;42.830;24.390;2022-11-20T04:15:24;93850.53;;;13.22;80.49
32243;BME280;18731;42.830;24.390;2022-11-20T04:17:49;93860.44;;;13.18;80.01
32243;BME280;18731;42.830;24.390;2022-11-20T04:20:15;93843.09;;;13.12;80.32
32243;BME280;18731;42.830;24.390;2022-11-20T04:22:41;93841.19;;;13.12;81.21
32243;BME280;18731;42.830;24.390;2022-11-20T04:25:07;93837.97;;;13.03;80.80
32243;BME280;18731;42.830;24.390;2022-11-20T04:27:32;93856.41;;;13.08;80.98
32243;BME280;18731;42.830;24.390;2022-11-20T04:29:58;93848.75;;;13.07;81.54
32243;BME280;18731;42.830;24.390;2022-11-20T04:32:24;93848.31;;;13.05;81.88
32243;BME280;18731;42.830;24.390;2022-11-20T04:34:49;93838.03;;;13.07;81.20
32243;BME280;18731;42.830;24.390;2022-11-20T04:37:15;93849.63;;;13.14;81.15
32243;BME280;18731;42.830;24.390;2022-11-20T04:39:41;93829.63;;;13.08;81.04
32243;BME280;18731;42.830;24.390;2022-11-20T04:42:09;93833.91;;;13.13;81.15
32243;BME280;18731;42.830;24.390;2022-11-20T04:44:54;93814.31;;;13.09;81.22
32243;BME280;18731;42.830;24.390;2022-11-20T04:47:20;93812.84;;;13.11;80.93
32243;BME280;18731;42.830;24.390;2022-11-20T04:49:45;93825.75;;;13.06;81.12
32243;BME280;18731;42.830;24.390;2022-11-20T04:52:11;93808.00;;;12.98;80.91
32243;BME280;18731;42.830;24.390;2022-11-20T04:54:37;93808.09;;;13.01;81.23
32243;BME280;18731;42.830;24.390;2022-11-20T04:57:02;93809.69;;;13.06;78.05
32243;BME280;18731;42.830;24.390;2022-11-20T04:59:28;93820.47;;;13.09;78.09
32243;BME280;18731;42.830;24.390;2022-11-20T05:01:53;93799.44;;;13.11;77.93
32243;BME280;18731;42.830;24.390;2022-11-20T05:04:19;93823.97;;;13.36;75.23
32243;BME280;18731;42.830;24.390;2022-11-20T05:06:45;93820.44;;;13.59;74.45
32243;BME280;18731;42.830;24.390;2022-11-20T05:09:11;93835.22;;;13.75;72.56
32243;BME280;18731;42.830;24.390;2022-11-20T05:11:37;93837.09;;;14.01;70.13
32243;BME280;18731;42.830;24.390;2022-11-20T05:14:03;93823.59;;;14.28;69.74
32243;BME280;18731;42.830;24.390;2022-11-20T05:16:28;93819.84;;;14.36;68.89
32243;BME280;18731;42.830;24.390;2022-11-20T05:18:55;93837.69;;;14.51;68.74
32243;BME280;18731;42.830;24.390;2022-11-20T05:21:21;93830.38;;;14.89;65.98
32243;BME280;18731;42.830;24.390;2022-11-20T05:23:48;93829.34;;;15.04;65.84
32243;BME280;18731;42.830;24.390;2022-11-20T05:26:18;93822.13;;;15.15;66.16
32243;BME280;18731;42.830;24.390;2022-11-20T05:28:45;93823.69;;;15.16;66.09
32243;BME280;18731;42.830;24.390;2022-11-20T05:31:16;93824.47;;;15.20;64.75
32243;BME280;18731;42.830;24.390;2022-11-20T05:33:43;93828.75;;;15.25;65.97
32243;BME280;18731;42.830;24.390;2022-11-20T05:36:11;93831.28;;;15.07;66.95
32243;BME280;18731;42.830;24.390;2022-11-20T05:38:37;93845.81;;;14.99;66.40
32243;BME280;18731;42.830;24.390;2022-11-20T05:41:15;93846.34;;;14.74;67.00
32243;BME280;18731;42.830;24.390;2022-11-20T05:43:42;93868.69;;;14.15;68.88
32243;BME280;18731;42.830;24.390;2022-11-20T05:46:11;93870.19;;;14.12;69.30
32243;BME280;18731;42.830;24.390;2022-11-20T05:48:38;93873.06;;;13.97;69.75
32243;BME280;18731;42.830;24.390;2022-11-20T05:51:05;93874.41;;;13.83;69.99
32243;BME280;18731;42.830;24.390;2022-11-20T05:53:33;93874.00;;;13.81;70.10
32243;BME280;18731;42.830;24.390;2022-11-20T05:56:09;93877.34;;;13.75;71.47
32243;BME280;18731;42.830;24.390;2022-11-20T05:58:36;93879.63;;;13.73;70.79
32243;BME280;18731;42.830;24.390;2022-11-20T06:01:13;93883.13;;;13.77;70.87
32243;BME280;18731;42.830;24.390;2022-11-20T06:03:40;93885.13;;;13.83;72.50
32243;BME280;18731;42.830;24.390;2022-11-20T06:06:08;93880.97;;;13.86;72.50
32243;BME280;18731;42.830;24.390;2022-11-20T06:08:34;93890.66;;;13.94;71.71
32243;BME280;18731;42.830;24.390;2022-11-20T06:11:06;93892.91;;;13.92;71.25
32243;BME280;18731;42.830;24.390;2022-11-20T06:13:32;93897.69;;;13.76;70.44
32243;BME280;18731;42.830;24.390;2022-11-20T06:15:58;93897.94;;;13.67;70.11
32243;BME280;18731;42.830;24.390;2022-11-20T06:18:26;93899.63;;;13.52;69.98
32243;BME280;18731;42.830;24.390;2022-11-20T06:21:05;93907.94;;;13.21;69.85
32243;BME280;18731;42.830;24.390;2022-11-20T06:23:32;93928.13;;;12.96;70.78
32243;BME280;18731;42.830;24.390;2022-11-20T06:26:04;93929.03;;;12.42;72.15
32243;BME280;18731;42.830;24.390;2022-11-20T06:28:30;93936.53;;;12.17;73.37
32243;BME280;18731;42.830;24.390;2022-11-20T06:30:56;93940.16;;;11.89;74.65
32243;BME280;18731;42.830;24.390;2022-11-20T06:33:22;93944.94;;;11.65;75.30
32243;BME280;18731;42.830;24.390;2022-11-20T06:35:47;93955.69;;;11.68;75.30
32243;BME280;18731;42.830;24.390;2022-11-20T06:38:13;93944.16;;;11.48;75.66
32243;BME280;18731;42.830;24.390;2022-11-20T06:40:42;93961.06;;;11.52;75.89
32243;BME280;18731;42.830;24.390;2022-11-20T06:43:09;93963.56;;;11.45;75.84
32243;BME280;18731;42.830;24.390;2022-11-20T06:45:36;93957.63;;;11.36;76.59
32243;BME280;18731;42.830;24.390;2022-11-20T06:48:02;93951.31;;;11.28;76.71
32243;BME280;18731;42.830;24.390;2022-11-20T06:50:28;93969.00;;;11.33;77.08
32243;BME280;18731;42.830;24.390;2022-11-20T06:52:54;93946.16;;;11.20;76.99
32243;BME280;18731;42.830;24.390;2022-11-20T06:55:19;93956.16;;;11.39;77.73
32243;BME280;18731;42.830;24.390;2022-11-20T06:57:45;93943.91;;;11.53;77.45
32243;BME280;18731;42.830;24.390;2022-11-20T07:00:11;93948.19;;;11.74;76.96
32243;BME280;18731;42.830;24.390;2022-11-20T07:02:37;93959.53;;;12.02;75.32
32243;BME280;18731;42.830;24.390;2022-11-20T07:05:03;93958.22;;;12.12;74.39
32243;BME280;18731;42.830;24.390;2022-11-20T07:07:29;93967.50;;;11.99;74.48
32243;BME280;18731;42.830;24.390;2022-11-20T07:09:54;93953.81;;;11.84;74.99
32243;BME280;18731;42.830;24.390;2022-11-20T07:12:20;93947.41;;;11.89;74.73
32243;BME280;18731;42.830;24.390;2022-11-20T07:14:46;93938.59;;;12.23;73.92
32243;BME280;18731;42.830;24.390;2022-11-20T07:17:12;93928.59;;;12.40;73.76
32243;BME280;18731;42.830;24.390;2022-11-20T07:19:37;93902.94;;;12.58;73.18
32243;BME280;18731;42.830;24.390;2022-11-20T07:22:03;93913.50;;;13.12;71.23
32243;BME280;18731;42.830;24.390;2022-11-20T07:24:29;93913.34;;;13.47;70.31
32243;BME280;18731;42.830;24.390;2022-11-20T07:26:54;93932.06;;;13.21;68.85
32243;BME280;18731;42.830;24.390;2022-11-20T07:29:20;93947.72;;;13.00;70.74
32243;BME280;18731;42.830;24.390;2022-11-20T07:31:45;93963.59;;;12.70;71.95
32243;BME280;18731;42.830;24.390;2022-11-20T07:34:11;93949.56;;;12.18;72.90
32243;BME280;18731;42.830;24.390;2022-11-20T07:36:37;93952.41;;;11.75;75.06
32243;BME280;18731;42.830;24.390;2022-11-20T07:39:03;93975.53;;;11.83;75.84
32243;BME280;18731;42.830;24.390;2022-11-20T07:41:28;93979.50;;;11.89;76.13
32243;BME280;18731;42.830;24.390;2022-11-20T07:43:54;93987.09;;;11.87;75.64
32243;BME280;18731;42.830;24.390;2022-11-20T07:46:20;93994.94;;;11.64;76.66
32243;BME280;18731;42.830;24.390;2022-11-20T07:48:45;93981.50;;;11.45;76.96
32243;BME280;18731;42.830;24.390;2022-11-20T07:51:11;93969.69;;;11.30;78.14
32243;BME280;18731;42.830;24.390;2022-11-20T07:53:37;93972.78;;;11.32;77.78
32243;BME280;18731;42.830;24.390;2022-11-20T07:56:03;93987.69;;;11.49;78.60
32243;BME280;18731;42.830;24.390;2022-11-20T07:58:29;93998.97;;;11.74;77.11
32243;BME280;18731;42.830;24.390;2022-11-20T08:00:55;93995.72;;;11.65;77.13
32243;BME280;18731;42.830;24.390;2022-11-20T08:03:21;94001.16;;;11.52;76.79
32243;BME280;18731;42.830;24.390;2022-11-20T08:05:47;93991.91;;;11.34;77.56
32243;BME280;18731;42.830;24.390;2022-11-20T08:08:13;94007.25;;;11.37;77.72
32243;BME280;18731;42.830;24.390;2022-11-20T08:10:38;93998.81;;;11.35;78.32
32243;BME280;18731;42.830;24.390;2022-11-20T08:13:04;94016.63;;;11.15;79.01
32243;BME280;18731;42.830;24.390;2022-11-20T08:15:49;94018.44;;;11.11;79.30
32243;BME280;18731;42.830;24.390;2022-11-20T08:18:16;94018.41;;;10.95;79.25
32243;BME280;18731;42.830;24.390;2022-11-20T08:20:43;94022.00;;;10.87;80.25
32243;BME280;18731;42.830;24.390;2022-11-20T08:23:08;94023.59;;;10.76;81.15
32243;BME280;18731;42.830;24.390;2022-11-20T08:25:36;94025.09;;;10.61;81.59
32243;BME280;18731;42.830;24.390;2022-11-20T08:28:05;94022.56;;;10.53;81.97
32243;BME280;18731;42.830;24.390;2022-11-20T08:30:31;94029.56;;;10.57;82.38
32243;BME280;18731;42.830;24.390;2022-11-20T08:33:05;94025.53;;;10.63;81.69
32243;BME280;18731;42.830;24.390;2022-11-20T08:35:37;94025.97;;;10.66;82.30
32243;BME280;18731;42.830;24.390;2022-11-20T08:38:05;94022.19;;;10.67;81.25
32243;BME280;18731;42.830;24.390;2022-11-20T08:40:31;94005.41;;;10.66;80.99
32243;BME280;18731;42.830;24.390;2022-11-20T08:42:57;94019.84;;;10.65;80.62
32243;BME280;18731;42.830;24.390;2022-11-20T08:45:23;94026.44;;;10.55;81.84
32243;BME280;18731;42.830;24.390;2022-11-20T08:47:49;94024.72;;;10.75;82.43
32243;BME280;18731;42.830;24.390;2022-11-20T08:50:16;94015.47;;;11.01;81.19
32243;BME280;18731;42.830;24.390;2022-11-20T08:52:42;94012.69;;;11.25;81.63
32243;BME280;18731;42.830;24.390;2022-11-20T08:55:09;94001.84;;;11.49;79.53
32243;BME280;18731;42.830;24.390;2022-11-20T08:57:36;93976.91;;;11.77;77.95
32243;BME280;18731;42.830;24.390;2022-11-20T09:00:09;93974.84;;;11.86;75.85
32243;BME280;18731;42.830;24.390;2022-11-20T09:02:36;93975.47;;;12.14;74.82
32243;BME280;18731;42.830;24.390;2022-11-20T09:05:01;93969.78;;;12.35;74.61
32243;BME280;18731;42.830;24.390;2022-11-20T09:07:28;93963.59;;;12.31;74.26
32243;BME280;18731;42.830;24.390;2022-11-20T09:09:54;93942.25;;;12.35;74.37
32243;BME280;18731;42.830;24.390;2022-11-20T09:12:19;93945.38;;;12.37;73.31
32243;BME280;18731;42.830;24.390;2022-11-20T09:14:45;93950.22;;;12.70;73.87
32243;BME280;18731;42.830;24.390;2022-11-20T09:17:10;93956.75;;;12.92;72.25
32243;BME280;18731;42.830;24.390;2022-11-20T09:19:39;93953.16;;;12.84;72.01
32243;BME280;18731;42.830;24.390;2022-11-20T09:22:05;93956.75;;;12.72;72.31
32243;BME280;18731;42.830;24.390;2022-11-20T09:24:31;93960.72;;;12.40;73.36
32243;BME280;18731;42.830;24.390;2022-11-20T09:26:57;93964.94;;;12.21;74.40
32243;BME280;18731;42.830;24.390;2022-11-20T09:29:22;93966.16;;;12.08;74.66
32243;BME280;18731;42.830;24.390;2022-11-20T09:31:48;93952.88;;;12.12;75.28
32243;BME280;18731;42.830;24.390;2022-11-20T09:34:13;93958.66;;;12.14;74.62
32243;BME280;18731;42.830;24.390;2022-11-20T09:36:39;93955.34;;;12.20;74.79
32243;BME280;18731;42.830;24.390;2022-11-20T09:39:05;93969.00;;;12.15;76.08
32243;BME280;18731;42.830;24.390;2022-11-20T09:41:47;93957.19;;;12.36;74.08
32243;BME280;18731;42.830;24.390;2022-11-20T09:47:06;93945.56;;;12.47;73.61
32243;BME280;18731;42.830;24.390;2022-11-20T09:49:47;93952.41;;;12.45;74.11
32243;BME280;18731;42.830;24.390;2022-11-20T09:55:03;93941.16;;;13.39;71.99
32243;BME280;18731;42.830;24.390;2022-11-20T09:57:41;93918.81;;;13.81;69.69
32243;BME280;18731;42.830;24.390;2022-11-20T10:00:13;93931.75;;;14.02;68.21
32243;BME280;18731;42.830;24.390;2022-11-20T10:05:31;93923.34;;;14.97;65.20
32243;BME280;18731;42.830;24.390;2022-11-20T10:08:21;93912.16;;;15.35;64.17
32243;BME280;18731;42.830;24.390;2022-11-20T10:25:02;93907.44;;;15.62;62.52
32243;BME280;18731;42.830;24.390;2022-11-20T10:30:20;93909.38;;;15.65;62.41
32243;BME280;18731;42.830;24.390;2022-11-20T10:32:52;93910.75;;;15.52;62.88
32243;BME280;18731;42.830;24.390;2022-11-20T10:35:36;93910.78;;;15.56;63.94
32243;BME280;18731;42.830;24.390;2022-11-20T10:38:14;93893.63;;;15.23;63.37
32243;BME280;18731;42.830;24.390;2022-11-20T10:40:57;93909.50;;;14.95;64.42
32243;BME280;18731;42.830;24.390;2022-11-20T10:43:44;93907.00;;;14.42;66.96
32243;BME280;18731;42.830;24.390;2022-11-20T10:46:21;93920.25;;;14.31;67.32
32243;BME280;18731;42.830;24.390;2022-11-20T10:48:50;93912.25;;;14.05;68.24
32243;BME280;18731;42.830;24.390;2022-11-20T11:01:50;93901.94;;;13.28;71.01
32243;BME280;18731;42.830;24.390;2022-11-20T11:04:35;93911.84;;;13.04;72.05
32243;BME280;18731;42.830;24.390;2022-11-20T11:07:35;93922.63;;;12.88;73.30
32243;BME280;18731;42.830;24.390;2022-11-20T11:10:19;93926.72;;;12.82;73.47
32243;BME280;18731;42.830;24.390;2022-11-20T11:12:47;93930.53;;;12.81;73.67
32243;BME280;18731;42.830;24.390;2022-11-20T11:15:40;93934.31;;;13.00;73.45
32243;BME280;18731;42.830;24.390;2022-11-20T11:18:10;93933.41;;;13.11;72.43
32243;BME280;18731;42.830;24.390;2022-11-20T11:20:37;93940.03;;;13.17;72.65
32243;BME280;18731;42.830;24.390;2022-11-20T11:23:03;93919.50;;;13.25;72.27
32243;BME280;18731;42.830;24.390;2022-11-20T11:25:32;93919.13;;;13.49;71.57
32243;BME280;18731;42.830;24.390;2022-11-20T11:30:44;93912.63;;;13.50;71.47
32243;BME280;18731;42.830;24.390;2022-11-20T11:33:18;93916.91;;;13.55;70.70
32243;BME280;18731;42.830;24.390;2022-11-20T11:35:49;93918.81;;;13.55;70.54
32243;BME280;18731;42.830;24.390;2022-11-20T11:38:27;93932.47;;;13.23;71.48
32243;BME280;18731;42.830;24.390;2022-11-20T11:40:56;93922.97;;;13.06;72.54
32243;BME280;18731;42.830;24.390;2022-11-20T11:43:25;93919.47;;;13.02;72.93
32243;BME280;18731;42.830;24.390;2022-11-20T11:46:32;93879.72;;;12.43;74.60
32243;BME280;18731;42.830;24.390;2022-11-20T11:49:19;93909.09;;;12.59;75.54
32243;BME280;18731;42.830;24.390;2022-11-20T11:54:34;93898.94;;;12.48;76.56
32243;BME280;18731;42.830;24.390;2022-11-20T11:57:09;93906.19;;;12.48;76.60
32243;BME280;18731;42.830;24.390;2022-11-20T12:05:38;93897.81;;;12.49;77.00
32243;BME280;18731;42.830;24.390;2022-11-20T12:16:27;93896.34;;;12.33;78.89
32243;BME280;18731;42.830;24.390;2022-11-20T12:18:55;93876.34;;;12.27;79.08
32243;BME280;18731;42.830;24.390;2022-11-20T12:21:28;93894.38;;;12.49;77.98
32243;BME280;18731;42.830;24.390;2022-11-20T12:40:56;93908.56;;;13.14;78.56
32243;BME280;18731;42.830;24.390;2022-11-20T12:43:31;93913.41;;;13.28;79.30
32243;BME280;18731;42.830;24.390;2022-11-20T12:49:15;93947.31;;;13.40;79.43
32243;BME280;18731;42.830;24.390;2022-11-20T12:57:57;93995.31;;;12.13;84.88
32243;BME280;18731;42.830;24.390;2022-11-20T13:00:24;94020.28;;;12.02;86.42
32243;BME280;18731;42.830;24.390;2022-11-20T13:05:50;94059.34;;;11.75;88.86
32243;BME280;18731;42.830;24.390;2022-11-20T13:08:40;94079.59;;;11.60;91.61
32243;BME280;18731;42.830;24.390;2022-11-20T13:11:34;94083.28;;;11.40;92.45
32243;BME280;18731;42.830;24.390;2022-11-20T13:14:13;94086.41;;;11.42;92.99
32243;BME280;18731;42.830;24.390;2022-11-20T13:16:54;94087.91;;;11.27;93.62
32243;BME280;18731;42.830;24.390;2022-11-20T13:19:24;94086.97;;;11.35;94.38
32243;BME280;18731;42.830;24.390;2022-11-20T13:21:50;94059.41;;;11.47;94.99
32243;BME280;18731;42.830;24.390;2022-11-20T13:26:45;94077.97;;;11.71;93.91
32243;BME280;18731;42.830;24.390;2022-11-20T13:29:18;94068.25;;;11.79;93.20
32243;BME280;18731;42.830;24.390;2022-11-20T13:31:48;94075.69;;;11.85;93.73
32243;BME280;18731;42.830;24.390;2022-11-20T13:34:24;94097.25;;;11.93;93.55
32243;BME280;18731;42.830;24.390;2022-11-20T13:36:56;94094.22;;;11.94;93.26
32243;BME280;18731;42.830;24.390;2022-11-20T13:39:33;94070.69;;;11.84;93.14
32243;BME280;18731;42.830;24.390;2022-11-20T13:42:02;94056.44;;;11.80;94.06
32243;BME280;18731;42.830;24.390;2022-11-20T13:44:54;94058.00;;;11.81;94.68
32243;BME280;18731;42.830;24.390;2022-11-20T13:47:23;94059.78;;;11.77;94.59
32243;BME280;18731;42.830;24.390;2022-11-20T13:49:51;94055.56;;;11.76;94.32
32243;BME280;18731;42.830;24.390;2022-11-20T13:55:42;94027.47;;;11.82;94.06
32243;BME280;18731;42.830;24.390;2022-11-20T13:58:33;94020.56;;;11.81;93.30
32243;BME280;18731;42.830;24.390;2022-11-20T14:01:23;94027.03;;;11.80;93.36
32243;BME280;18731;42.830;24.390;2022-11-20T14:03:50;94043.16;;;11.83;92.70
32243;BME280;18731;42.830;24.390;2022-11-20T14:06:26;94038.16;;;11.82;92.33
32243;BME280;18731;42.830;24.390;2022-11-20T14:08:53;94027.38;;;11.94;92.30
32243;BME280;18731;42.830;24.390;2022-11-20T14:11:22;93969.69;;;11.62;92.61
32243;BME280;18731;42.830;24.390;2022-11-20T14:14:02;93991.06;;;11.77;93.41
32243;BME280;18731;42.830;24.390;2022-11-20T14:16:32;93981.22;;;11.66;94.43
32243;BME280;18731;42.830;24.390;2022-11-20T14:21:49;93914.19;;;11.39;95.88
32243;BME280;18731;42.830;24.390;2022-11-20T14:24:19;93890.22;;;11.27;96.59
32243;BME280;18731;42.830;24.390;2022-11-20T14:26:46;93888.00;;;11.29;96.88
32243;BME280;18731;42.830;24.390;2022-11-20T14:29:17;93890.22;;;11.27;97.31
32243;BME280;18731;42.830;24.390;2022-11-20T14:31:45;93883.50;;;11.33;96.95
32243;BME280;18731;42.830;24.390;2022-11-20T14:34:17;93890.22;;;11.27;95.35
32243;BME280;18731;42.830;24.390;2022-11-20T14:36:44;93878.16;;;11.33;93.62
32243;BME280;18731;42.830;24.390;2022-11-20T14:39:34;93864.38;;;11.31;94.83
32243;BME280;18731;42.830;24.390;2022-11-20T14:42:01;93872.66;;;11.26;95.16
32243;BME280;18731;42.830;24.390;2022-11-20T14:44:32;93866.63;;;11.29;94.51
32243;BME280;18731;42.830;24.390;2022-11-20T14:47:00;93875.38;;;11.45;93.60
32243;BME280;18731;42.830;24.390;2022-11-20T14:49:29;93873.22;;;11.51;93.25
32243;BME280;18731;42.830;24.390;2022-11-20T14:52:20;93874.41;;;11.53;93.75
32243;BME280;18731;42.830;24.390;2022-11-20T14:54:48;93876.75;;;11.55;93.97
32243;BME280;18731;42.830;24.390;2022-11-20T14:57:31;93905.69;;;11.69;92.99
32243;BME280;18731;42.830;24.390;2022-11-20T15:02:42;93921.66;;;11.49;93.79
32243;BME280;18731;42.830;24.390;2022-11-20T15:05:08;93931.41;;;11.57;93.28
32243;BME280;18731;42.830;24.390;2022-11-20T15:07:39;93932.09;;;11.54;93.37
32243;BME280;18731;42.830;24.390;2022-11-20T15:10:23;93941.22;;;11.53;93.87
32243;BME280;18731;42.830;24.390;2022-11-20T15:12:54;93929.69;;;11.49;93.87
32243;BME280;18731;42.830;24.390;2022-11-20T15:15:42;93948.28;;;11.62;93.93
32243;BME280;18731;42.830;24.390;2022-11-20T15:18:13;93954.94;;;11.52;93.62
32243;BME280;18731;42.830;24.390;2022-11-20T15:20:40;93960.19;;;11.48;93.91
32243;BME280;18731;42.830;24.390;2022-11-20T15:23:14;93969.06;;;11.52;94.00
32243;BME280;18731;42.830;24.390;2022-11-20T15:25:41;93974.06;;;11.54;93.78
32243;BME280;18731;42.830;24.390;2022-11-20T15:30:42;93977.25;;;11.59;93.71
32243;BME280;18731;42.830;24.390;2022-11-20T15:33:09;93964.16;;;11.54;93.56
32243;BME280;18731;42.830;24.390;2022-11-20T15:35:35;93978.22;;;11.67;93.24
32243;BME280;18731;42.830;24.390;2022-11-20T15:38:01;93968.22;;;11.64;92.69
32243;BME280;18731;42.830;24.390;2022-11-20T15:40:26;93966.31;;;11.65;92.22
32243;BME280;18731;42.830;24.390;2022-11-20T15:42:52;93975.72;;;11.58;92.54
32243;BME280;18731;42.830;24.390;2022-11-20T15:45:38;94000.72;;;11.66;92.71
32243;BME280;18731;42.830;24.390;2022-11-20T15:48:09;94003.47;;;11.70;92.54
32243;BME280;18731;42.830;24.390;2022-11-20T15:50:52;94006.56;;;11.72;92.43
32243;BME280;18731;42.830;24.390;2022-11-20T15:53:19;94000.53;;;11.75;92.25
32243;BME280;18731;42.830;24.390;2022-11-20T15:55:44;94003.81;;;11.68;92.32
32243;BME280;18731;42.830;24.390;2022-11-20T15:58:10;93988.81;;;11.64;92.29
32243;BME280;18731;42.830;24.390;2022-11-20T16:00:36;94004.34;;;11.74;92.07
32243;BME280;18731;42.830;24.390;2022-11-20T16:03:01;94002.09;;;11.76;91.71
32243;BME280;18731;42.830;24.390;2022-11-20T16:05:30;94005.66;;;11.80;91.69
32243;BME280;18731;42.830;24.390;2022-11-20T16:07:56;94002.97;;;11.80;91.25
32243;BME280;18731;42.830;24.390;2022-11-20T16:10:22;94002.97;;;11.80;91.13
32243;BME280;18731;42.830;24.390;2022-11-20T16:12:49;93994.53;;;11.78;91.36
32243;BME280;18731;42.830;24.390;2022-11-20T16:15:33;93985.88;;;11.69;91.54
32243;BME280;18731;42.830;24.390;2022-11-20T16:18:21;93985.09;;;11.68;91.64
32243;BME280;18731;42.830;24.390;2022-11-20T16:20:50;93991.50;;;11.64;91.47
32243;BME280;18731;42.830;24.390;2022-11-20T16:23:16;94000.78;;;11.70;91.25
32243;BME280;18731;42.830;24.390;2022-11-20T16:25:43;94003.91;;;11.72;91.07
32243;BME280;18731;42.830;24.390;2022-11-20T16:28:09;94016.56;;;11.75;90.78
32243;BME280;18731;42.830;24.390;2022-11-20T16:30:34;94005.22;;;11.78;90.25
32243;BME280;18731;42.830;24.390;2022-11-20T16:33:01;94010.38;;;11.71;89.43
32243;BME280;18731;42.830;24.390;2022-11-20T16:35:29;93996.75;;;11.60;89.46
32243;BME280;18731;42.830;24.390;2022-11-20T16:37:58;94003.56;;;11.73;89.44
32243;BME280;18731;42.830;24.390;2022-11-20T16:40:24;93999.94;;;11.66;89.68
32243;BME280;18731;42.830;24.390;2022-11-20T16:42:50;93994.16;;;11.64;89.85
32243;BME280;18731;42.830;24.390;2022-11-20T16:45:17;93992.63;;;11.63;90.08
32243;BME280;18731;42.830;24.390;2022-11-20T16:47:43;93971.59;;;11.45;90.80
32243;BME280;18731;42.830;24.390;2022-11-20T16:50:09;93965.47;;;11.45;90.79
32243;BME280;18731;42.830;24.390;2022-11-20T16:52:34;93975.97;;;11.53;90.84
32243;BME280;18731;42.830;24.390;2022-11-20T16:55:00;93952.28;;;11.36;90.66
32243;BME280;18731;42.830;24.390;2022-11-20T16:57:30;93990.81;;;11.51;91.02
32243;BME280;18731;42.830;24.390;2022-11-20T17:00:00;94001.41;;;11.47;90.97
32243;BME280;18731;42.830;24.390;2022-11-20T17:02:26;94002.63;;;11.50;90.56
32243;BME280;18731;42.830;24.390;2022-11-20T17:04:52;93993.38;;;11.47;89.60
32243;BME280;18731;42.830;24.390;2022-11-20T17:07:18;93976.75;;;11.38;89.34
32243;BME280;18731;42.830;24.390;2022-11-20T17:09:44;93983.31;;;11.41;88.97
32243;BME280;18731;42.830;24.390;2022-11-20T17:12:10;93989.09;;;11.43;88.45
32243;BME280;18731;42.830;24.390;2022-11-20T17:14:35;93994.06;;;11.44;88.66
32243;BME280;18731;42.830;24.390;2022-11-20T17:17:01;93987.25;;;11.31;88.54
32243;BME280;18731;42.830;24.390;2022-11-20T17:19:27;94014.84;;;11.35;91.23
32243;BME280;18731;42.830;24.390;2022-11-20T17:21:53;94005.34;;;11.22;91.99
32243;BME280;18731;42.830;24.390;2022-11-20T17:24:19;94005.84;;;11.12;93.57
32243;BME280;18731;42.830;24.390;2022-11-20T17:26:44;94010.22;;;11.04;94.69
32243;BME280;18731;42.830;24.390;2022-11-20T17:29:15;94008.00;;;11.06;95.79
32243;BME280;18731;42.830;24.390;2022-11-20T17:31:41;94003.06;;;10.92;96.32
32243;BME280;18731;42.830;24.390;2022-11-20T17:34:10;94023.75;;;10.95;96.94
32243;BME280;18731;42.830;24.390;2022-11-20T17:36:37;94019.19;;;10.96;97.09
32243;BME280;18731;42.830;24.390;2022-11-20T17:39:13;94007.91;;;11.03;97.07
32243;BME280;18731;42.830;24.390;2022-11-20T17:41:39;93996.09;;;11.04;96.96
32243;BME280;18731;42.830;24.390;2022-11-20T17:44:05;93995.84;;;11.09;96.65